Time;durP1;ratioP1;P1;durP2;ratioP2;P2;SDS_P1;SDS_P2;PMS_P1;PMS_P2;Temp;Humidity;BMP_temperature;BMP_pressure;BME280_temperature;BME280_humidity;BME280_pressure;Samples;Min_cycle;Max_cycle;Signal;HPM_P1;HPM_P2
2022/02/15 00:01:10;;;;;;;465.77;444.33;;;6.60;99.90;;;;;;4411294;32;20632;-62
2022/02/15 00:03:37;;;;;;;468.13;446.73;;;6.60;99.90;;;;;;4420179;32;20175;-60
2022/02/15 00:06:04;;;;;;;473.10;450.90;;;6.60;99.90;;;;;;4420556;32;20588;-62
2022/02/15 00:08:32;;;;;;;483.73;461.33;;;6.70;99.90;;;;;;4414333;32;20206;-65
2022/02/15 00:10:59;;;;;;;464.30;442.60;;;6.70;99.90;;;;;;4411430;32;20181;-62
2022/02/15 00:13:28;;;;;;;484.03;460.97;;;6.70;99.90;;;;;;4408691;32;20139;-63
2022/02/15 00:16:00;;;;;;;482.13;459.63;;;6.70;99.90;;;;;;4405286;32;20223;-61
2022/02/15 00:18:28;;;;;;;493.87;470.70;;;6.70;99.90;;;;;;4417093;32;20174;-62
2022/02/15 00:20:58;;;;;;;475.00;452.27;;;6.70;99.90;;;;;;4407102;32;20182;-61
2022/02/15 00:23:26;;;;;;;478.20;455.70;;;6.70;99.90;;;;;;4416964;32;20209;-60
2022/02/15 00:25:54;;;;;;;485.00;462.40;;;6.70;99.90;;;;;;4412895;32;20156;-60
2022/02/15 00:28:21;;;;;;;458.40;437.17;;;6.60;99.90;;;;;;4405769;32;20170;-63
2022/02/15 00:30:48;;;;;;;476.37;453.27;;;6.60;99.90;;;;;;4412775;32;20174;-61
2022/02/15 00:33:18;;;;;;;474.90;452.97;;;6.50;99.90;;;;;;4419920;32;20152;-62
2022/02/15 00:35:48;;;;;;;483.83;460.93;;;6.40;99.90;;;;;;4419390;32;20204;-61
2022/02/15 00:38:17;;;;;;;482.57;460.53;;;6.20;99.90;;;;;;4404952;32;20148;-61
2022/02/15 00:40:45;;;;;;;494.33;471.30;;;6.10;99.90;;;;;;4405820;32;20143;-64
2022/02/15 00:43:15;;;;;;;507.93;483.87;;;6.10;99.90;;;;;;4412453;32;20170;-63
2022/02/15 00:45:41;;;;;;;475.40;453.97;;;6.20;99.90;;;;;;4415065;32;20163;-63
2022/02/15 00:48:14;;;;;;;482.43;460.03;;;6.30;99.90;;;;;;4406161;32;20152;-61
2022/02/15 00:50:49;;;;;;;460.07;439.37;;;6.40;99.90;;;;;;4411018;32;20179;-62
2022/02/15 00:53:16;;;;;;;455.00;434.57;;;6.40;99.90;;;;;;4391027;32;20313;-63
2022/02/15 00:55:48;;;;;;;479.27;456.17;;;6.50;99.90;;;;;;4405881;32;20175;-61
2022/02/15 00:58:19;;;;;;;472.47;451.07;;;6.50;99.90;;;;;;4404564;32;20573;-60
2022/02/15 01:00:46;;;;;;;478.87;457.43;;;6.50;99.90;;;;;;4409393;32;20159;-63
2022/02/15 01:03:13;;;;;;;469.27;447.43;;;6.50;99.90;;;;;;4403686;32;20144;-63
2022/02/15 01:05:40;;;;;;;475.53;453.37;;;6.50;99.90;;;;;;4404731;32;20247;-62
2022/02/15 01:08:08;;;;;;;472.87;450.73;;;6.50;99.90;;;;;;4414599;32;20561;-62
2022/02/15 01:10:35;;;;;;;459.10;438.47;;;6.40;99.90;;;;;;4416557;32;20144;-62
2022/02/15 01:13:02;;;;;;;461.70;440.57;;;6.50;99.90;;;;;;4419552;32;20205;-61
2022/02/15 01:15:30;;;;;;;468.20;446.63;;;6.50;99.90;;;;;;4420549;32;20187;-61
2022/02/15 01:17:57;;;;;;;463.60;441.90;;;6.40;99.90;;;;;;4408873;32;20148;-63
2022/02/15 01:20:24;;;;;;;474.00;452.57;;;6.40;99.90;;;;;;4417128;32;20219;-62
2022/02/15 01:22:51;;;;;;;475.37;453.13;;;6.40;99.90;;;;;;4410578;32;20170;-63
2022/02/15 01:25:20;;;;;;;474.97;453.50;;;6.40;99.90;;;;;;4411202;32;20174;-60
2022/02/15 01:27:50;;;;;;;457.00;435.93;;;6.40;99.90;;;;;;4404291;32;20178;-62
2022/02/15 01:30:17;;;;;;;464.40;443.37;;;6.40;99.90;;;;;;4410193;32;20151;-61
2022/02/15 01:32:49;;;;;;;462.40;440.90;;;6.40;99.90;;;;;;4406812;32;20176;-61
2022/02/15 01:35:18;;;;;;;476.07;454.23;;;6.30;99.90;;;;;;4409727;32;20152;-63
2022/02/15 01:37:44;;;;;;;482.23;459.67;;;6.30;99.90;;;;;;4403879;32;20238;-61
2022/02/15 01:40:13;;;;;;;491.60;468.17;;;6.30;99.90;;;;;;4404432;32;20156;-62
2022/02/15 01:42:40;;;;;;;480.10;457.50;;;6.20;99.90;;;;;;4406107;32;20639;-63
2022/02/15 01:45:11;;;;;;;478.23;455.93;;;6.10;99.90;;;;;;4404717;32;20536;-61
2022/02/15 01:47:38;;;;;;;494.90;471.60;;;6.10;99.90;;;;;;4411036;32;20160;-62
2022/02/15 01:50:08;;;;;;;485.07;462.63;;;6.00;99.90;;;;;;4419423;32;20151;-62
2022/02/15 01:52:39;;;;;;;482.67;460.60;;;6.00;99.90;;;;;;4414570;32;20195;-62
2022/02/15 01:55:15;;;;;;;477.30;455.37;;;5.90;99.90;;;;;;4420201;32;20172;-64
2022/02/15 01:57:42;;;;;;;466.20;444.43;;;5.80;99.90;;;;;;4418315;32;20556;-63
2022/02/15 02:00:11;;;;;;;487.90;465.17;;;5.70;99.90;;;;;;4417741;32;20518;-62
2022/02/15 02:02:38;;;;;;;484.27;461.87;;;5.60;99.90;;;;;;4411583;32;20242;-62
2022/02/15 02:07:52;;;;;;;453.83;432.53;;;5.60;99.90;;;;;;4410610;32;20223;-63
2022/02/15 02:10:19;;;;;;;478.60;456.17;;;5.60;99.90;;;;;;4414750;32;20159;-63
2022/02/15 02:12:46;;;;;;;483.23;460.87;;;5.60;99.90;;;;;;4412522;32;20544;-61
2022/02/15 02:15:18;;;;;;;479.20;456.97;;;5.80;99.90;;;;;;4404234;32;20542;-63
2022/02/15 02:17:48;;;;;;;444.00;423.77;;;5.90;99.90;;;;;;4404241;32;20174;-63
2022/02/15 02:20:20;;;;;;;477.53;455.40;;;6.00;99.90;;;;;;4406468;32;20453;-61
2022/02/15 02:22:49;;;;;;;466.50;444.83;;;6.10;99.90;;;;;;4409816;32;20159;-64
2022/02/15 02:25:21;;;;;;;485.43;462.57;;;6.20;99.90;;;;;;4405431;32;20162;-61
2022/02/15 02:27:48;;;;;;;479.97;458.03;;;6.10;99.90;;;;;;4413335;32;20187;-60
2022/02/15 02:30:16;;;;;;;463.63;442.33;;;6.10;99.90;;;;;;4413822;32;20504;-63
2022/02/15 02:32:43;;;;;;;460.03;439.43;;;6.10;99.90;;;;;;4412454;32;20495;-62
2022/02/15 02:35:12;;;;;;;464.10;442.50;;;6.10;99.90;;;;;;4409292;32;20194;-60
2022/02/15 02:37:39;;;;;;;475.53;453.43;;;6.10;99.90;;;;;;4417166;32;20168;-61
2022/02/15 02:40:10;;;;;;;470.97;449.70;;;6.10;99.90;;;;;;4408772;32;20501;-62
2022/02/15 02:42:38;;;;;;;481.67;459.80;;;6.10;99.90;;;;;;4417238;32;20143;-63
2022/02/15 02:45:08;;;;;;;474.73;452.70;;;6.10;99.90;;;;;;4414594;32;20209;-61
2022/02/15 02:47:36;;;;;;;482.93;460.43;;;6.10;99.90;;;;;;4415669;32;20170;-62
2022/02/15 02:50:04;;;;;;;467.87;446.33;;;6.10;99.90;;;;;;4409051;32;20228;-61
2022/02/15 02:52:34;;;;;;;485.33;462.63;;;6.20;99.90;;;;;;4421901;32;20151;-63
2022/02/15 02:55:01;;;;;;;488.80;466.10;;;6.10;99.90;;;;;;4409237;32;20472;-62
2022/02/15 02:57:29;;;;;;;482.93;460.37;;;6.20;99.90;;;;;;4406566;32;20178;-61
2022/02/15 02:59:56;;;;;;;487.93;465.83;;;6.20;99.90;;;;;;4406494;32;20156;-61
2022/02/15 03:02:23;;;;;;;481.37;458.97;;;6.20;99.90;;;;;;4406432;32;20223;-61
2022/02/15 03:04:49;;;;;;;449.10;428.10;;;6.30;99.90;;;;;;4407446;32;20495;-63
2022/02/15 03:07:16;;;;;;;477.37;455.23;;;6.30;99.90;;;;;;4407974;32;20573;-62
2022/02/15 03:09:43;;;;;;;472.97;450.73;;;6.30;99.90;;;;;;4420627;32;20156;-61
2022/02/15 03:12:13;;;;;;;476.57;454.00;;;6.30;99.90;;;;;;4405860;32;20205;-62
2022/02/15 03:14:41;;;;;;;470.10;447.43;;;6.40;99.90;;;;;;4409782;32;20567;-63
2022/02/15 03:17:08;;;;;;;465.63;443.63;;;6.40;99.90;;;;;;4420856;32;20139;-62
2022/02/15 03:19:35;;;;;;;451.97;431.17;;;6.30;99.90;;;;;;4412727;32;20151;-60
2022/02/15 03:22:05;;;;;;;458.73;437.50;;;6.30;99.90;;;;;;4415448;32;20187;-62
2022/02/15 03:24:33;;;;;;;468.40;446.23;;;6.20;99.90;;;;;;4412126;32;20148;-60
2022/02/15 03:27:00;;;;;;;484.63;461.57;;;6.20;99.90;;;;;;4409136;32;20205;-62
2022/02/15 03:29:27;;;;;;;483.13;459.97;;;6.20;99.90;;;;;;4407804;32;20182;-61
2022/02/15 03:31:55;;;;;;;470.90;448.47;;;6.20;99.90;;;;;;4418230;32;20491;-61
2022/02/15 03:34:22;;;;;;;487.47;464.30;;;6.20;99.90;;;;;;4413796;32;20615;-62
2022/02/15 03:36:49;;;;;;;470.03;447.80;;;6.20;99.90;;;;;;4405830;32;20476;-61
2022/02/15 03:39:16;;;;;;;485.47;463.00;;;6.20;99.90;;;;;;4412860;32;20159;-62
2022/02/15 03:44:30;;;;;;;466.90;445.10;;;6.30;99.90;;;;;;4407141;32;20304;-60
2022/02/15 03:46:59;;;;;;;475.83;453.97;;;6.40;99.90;;;;;;4409992;32;20155;-60
2022/02/15 03:49:26;;;;;;;462.80;441.60;;;6.50;99.90;;;;;;4419485;32;20564;-59
2022/02/15 03:51:55;;;;;;;455.73;434.70;;;6.50;99.90;;;;;;4409910;32;20587;-63
2022/02/15 03:54:25;;;;;;;445.00;424.70;;;6.50;99.90;;;;;;4407918;32;20152;-63
2022/02/15 03:56:51;;;;;;;459.57;438.50;;;6.50;99.90;;;;;;4405561;32;20185;-63
2022/02/15 03:59:19;;;;;;;471.30;449.13;;;6.50;99.90;;;;;;4405697;32;20152;-61
2022/02/15 04:01:46;;;;;;;478.70;456.53;;;6.50;99.90;;;;;;4412125;32;20155;-63
2022/02/15 04:04:16;;;;;;;472.07;450.43;;;6.50;99.90;;;;;;4421317;32;20586;-62
2022/02/15 04:06:43;;;;;;;482.00;459.07;;;6.50;99.90;;;;;;4413556;32;20849;-62
2022/02/15 04:09:10;;;;;;;468.00;446.53;;;6.40;99.90;;;;;;4420609;32;20159;-62
2022/02/15 04:11:37;;;;;;;493.23;470.57;;;6.40;99.90;;;;;;4407569;32;20164;-60
2022/02/15 04:14:04;;;;;;;470.10;448.47;;;6.40;99.90;;;;;;4420448;32;20186;-61
2022/02/15 04:16:31;;;;;;;473.83;452.03;;;6.50;99.90;;;;;;4408193;32;20203;-61
2022/02/15 04:18:58;;;;;;;466.97;444.93;;;6.40;99.90;;;;;;4405385;32;20575;-61
2022/02/15 04:21:26;;;;;;;473.00;450.83;;;6.40;99.90;;;;;;4416740;32;20173;-63
2022/02/15 04:23:56;;;;;;;467.27;445.37;;;6.40;99.90;;;;;;4407215;32;20725;-63
2022/02/15 04:26:26;;;;;;;465.03;443.73;;;6.40;99.90;;;;;;4420305;32;20144;-61
2022/02/15 04:28:55;;;;;;;461.67;440.00;;;6.40;99.90;;;;;;4419765;32;20168;-62
2022/02/15 04:31:22;;;;;;;472.77;451.17;;;6.30;99.90;;;;;;4415272;32;20188;-63
2022/02/15 04:33:49;;;;;;;473.27;451.43;;;6.30;99.90;;;;;;4408876;32;20167;-63
2022/02/15 04:36:16;;;;;;;473.53;451.77;;;6.40;99.90;;;;;;4404959;32;20156;-63
2022/02/15 04:38:46;;;;;;;481.00;458.63;;;6.40;99.90;;;;;;4418126;32;20151;-62
2022/02/15 04:41:14;;;;;;;476.07;454.33;;;6.40;99.90;;;;;;4413556;32;20564;-62
2022/02/15 04:43:41;;;;;;;481.83;459.57;;;6.50;99.90;;;;;;4411561;32;20211;-62
2022/02/15 04:46:11;;;;;;;453.97;432.93;;;6.50;99.90;;;;;;4420077;32;20148;-61
2022/02/15 04:48:40;;;;;;;446.93;426.77;;;6.50;99.90;;;;;;4414324;32;20208;-62
2022/02/15 04:51:07;;;;;;;465.77;444.00;;;6.60;99.90;;;;;;4405927;32;20219;-62
2022/02/15 04:53:34;;;;;;;478.87;456.33;;;6.60;99.90;;;;;;4404729;32;20171;-62
2022/02/15 04:56:05;;;;;;;473.27;451.63;;;6.60;99.90;;;;;;4407375;32;20174;-63
2022/02/15 04:58:32;;;;;;;463.20;442.10;;;6.60;99.90;;;;;;4416316;32;20248;-63
2022/02/15 05:00:59;;;;;;;469.83;447.77;;;6.70;99.90;;;;;;4414651;32;20209;-63
2022/02/15 05:03:29;;;;;;;466.70;445.07;;;6.70;99.90;;;;;;4410762;32;20205;-61
2022/02/15 05:05:56;;;;;;;478.03;455.70;;;6.80;99.90;;;;;;4404681;32;20151;-62
2022/02/15 05:08:23;;;;;;;442.40;421.77;;;6.70;99.90;;;;;;4408638;32;20155;-60
2022/02/15 05:10:50;;;;;;;468.83;447.40;;;6.70;99.90;;;;;;4419310;32;20266;-61
2022/02/15 05:13:19;;;;;;;464.70;442.27;;;6.60;99.90;;;;;;4416125;32;20218;-61
2022/02/15 05:15:48;;;;;;;454.97;433.57;;;6.70;99.90;;;;;;4411538;32;20174;-62
2022/02/15 05:18:14;;;;;;;470.10;447.97;;;6.60;99.90;;;;;;4407729;32;20147;-61
2022/02/15 05:20:44;;;;;;;474.53;451.93;;;6.60;99.90;;;;;;4409936;32;20155;-62
2022/02/15 05:23:15;;;;;;;468.43;446.33;;;6.60;99.90;;;;;;4412139;32;20147;-60
2022/02/15 05:25:42;;;;;;;465.10;442.93;;;6.60;99.90;;;;;;4408322;32;20171;-60
2022/02/15 05:28:19;;;;;;;469.70;446.73;;;6.60;99.90;;;;;;4418735;32;20177;-60
2022/02/15 05:30:46;;;;;;;438.20;417.90;;;6.60;99.90;;;;;;4418141;32;20190;-60
2022/02/15 05:33:13;;;;;;;470.80;448.87;;;6.60;99.90;;;;;;4412058;32;20218;-61
2022/02/15 05:35:40;;;;;;;466.57;444.90;;;6.60;99.90;;;;;;4414452;32;20152;-60
2022/02/15 05:38:07;;;;;;;464.47;442.73;;;6.60;99.90;;;;;;4405647;32;20143;-60
2022/02/15 05:40:34;;;;;;;437.00;416.00;;;6.70;99.90;;;;;;4406712;32;20180;-60
2022/02/15 05:43:03;;;;;;;458.73;437.10;;;6.60;99.90;;;;;;4405797;32;20183;-60
2022/02/15 05:45:32;;;;;;;480.73;457.93;;;6.70;99.90;;;;;;4412665;32;20583;-60
2022/02/15 05:47:59;;;;;;;468.73;446.60;;;6.60;99.90;;;;;;4419949;32;20178;-60
2022/02/15 05:53:10;;;;;;;459.00;437.43;;;6.60;99.90;;;;;;4405070;32;20208;-61
2022/02/15 05:55:37;;;;;;;450.47;429.03;;;6.60;99.90;;;;;;4414403;32;20168;-61
2022/02/15 05:58:04;;;;;;;442.60;421.83;;;6.60;99.90;;;;;;4413307;32;20567;-61
2022/02/15 06:00:33;;;;;;;460.50;438.53;;;6.80;99.90;;;;;;4405218;32;20148;-60
2022/02/15 06:03:00;;;;;;;452.77;431.10;;;6.70;99.90;;;;;;4409703;32;20155;-61
2022/02/15 06:05:28;;;;;;;447.37;426.77;;;6.70;99.90;;;;;;4422227;32;20938;-61
2022/02/15 06:07:55;;;;;;;456.70;434.57;;;6.70;99.90;;;;;;4421714;32;20488;-61
2022/02/15 06:10:22;;;;;;;452.80;431.40;;;6.70;99.90;;;;;;4413521;32;20603;-60
2022/02/15 06:12:48;;;;;;;441.63;420.47;;;6.70;99.90;;;;;;4412596;32;20160;-62
2022/02/15 06:15:21;;;;;;;456.63;435.20;;;6.80;99.90;;;;;;4410789;32;20606;-61
2022/02/15 06:17:49;;;;;;;459.90;438.13;;;6.80;99.90;;;;;;4412519;32;20186;-62
2022/02/15 06:20:16;;;;;;;464.23;441.83;;;6.80;99.90;;;;;;4411070;32;20186;-61
2022/02/15 06:22:43;;;;;;;463.53;441.87;;;6.80;99.90;;;;;;4413057;32;20202;-61
2022/02/15 06:25:10;;;;;;;463.60;441.97;;;6.80;99.90;;;;;;4412252;32;20182;-62
2022/02/15 06:27:38;;;;;;;455.20;433.27;;;6.70;99.90;;;;;;4411181;32;20207;-61
2022/02/15 06:30:07;;;;;;;457.30;435.50;;;6.80;99.90;;;;;;4416508;32;20144;-63
2022/02/15 06:32:34;;;;;;;461.77;440.00;;;6.70;99.90;;;;;;4406960;32;20161;-60
2022/02/15 06:35:02;;;;;;;473.77;450.87;;;6.70;99.90;;;;;;4409461;32;20602;-63
2022/02/15 06:37:29;;;;;;;484.63;461.87;;;6.70;99.90;;;;;;4413941;32;20643;-61
2022/02/15 06:39:56;;;;;;;460.87;438.67;;;6.70;99.90;;;;;;4417525;32;20151;-63
2022/02/15 06:42:23;;;;;;;467.87;444.90;;;6.80;99.90;;;;;;4412997;32;20195;-61
2022/02/15 06:44:51;;;;;;;443.27;422.47;;;6.60;99.90;;;;;;4408593;32;20143;-61
2022/02/15 06:47:17;;;;;;;468.97;446.50;;;6.60;99.90;;;;;;4411819;32;20179;-60
2022/02/15 06:50:03;;;;;;;463.17;441.30;;;6.50;99.90;;;;;;4412317;32;20487;-61
2022/02/15 06:52:38;;;;;;;440.17;419.67;;;6.40;99.90;;;;;;4406912;32;20270;-61
2022/02/15 06:55:08;;;;;;;436.07;415.57;;;6.40;99.90;;;;;;4409230;32;20210;-60
2022/02/15 06:57:45;;;;;;;449.87;428.53;;;6.40;99.90;;;;;;4409220;32;20167;-60
2022/02/15 07:00:13;;;;;;;439.63;419.17;;;6.50;99.90;;;;;;4407209;32;20172;-60
2022/02/15 07:02:40;;;;;;;451.73;430.87;;;6.50;99.90;;;;;;4412935;32;20214;-60
2022/02/15 07:05:11;;;;;;;459.63;437.43;;;6.50;99.90;;;;;;4409813;32;20152;-60
2022/02/15 07:07:53;;;;;;;444.43;423.30;;;6.50;99.90;;;;;;4413012;32;20188;-60
2022/02/15 07:10:25;;;;;;;422.50;402.80;;;6.40;99.90;;;;;;4411842;32;20185;-60
2022/02/15 07:12:59;;;;;;;446.80;425.50;;;6.30;99.90;;;;;;4408957;32;20176;-60
2022/02/15 07:15:35;;;;;;;443.33;422.37;;;6.10;99.90;;;;;;4408932;32;20151;-61
2022/02/15 07:18:12;;;;;;;428.07;408.00;;;6.00;99.90;;;;;;4406192;32;20155;-59
2022/02/15 07:20:50;;;;;;;447.87;426.93;;;6.00;99.90;;;;;;4406299;32;20208;-60
2022/02/15 07:23:24;;;;;;;434.63;414.33;;;5.90;99.90;;;;;;4405081;32;20233;-61
2022/02/15 07:26:02;;;;;;;433.77;413.57;;;5.80;99.90;;;;;;4407700;32;20178;-60
2022/02/15 07:28:33;;;;;;;444.03;423.87;;;5.80;99.90;;;;;;4410026;32;20222;-60
2022/02/15 07:31:18;;;;;;;459.30;437.77;;;5.80;99.90;;;;;;4413056;32;20634;-59
2022/02/15 07:33:45;;;;;;;416.97;398.43;;;5.90;99.90;;;;;;4414132;32;20153;-62
2022/02/15 07:36:13;;;;;;;442.87;421.93;;;5.90;99.90;;;;;;4410325;32;20144;-60
2022/02/15 07:38:49;;;;;;;440.27;419.77;;;5.90;99.90;;;;;;4415769;32;20202;-61
2022/02/15 07:41:16;;;;;;;432.43;412.87;;;6.00;99.90;;;;;;4407264;32;20151;-61
2022/02/15 07:43:44;;;;;;;435.50;415.23;;;6.40;99.90;;;;;;4413039;32;20156;-61
2022/02/15 07:46:19;;;;;;;448.80;427.67;;;6.60;99.90;;;;;;4413432;32;20580;-61
2022/02/15 07:48:46;;;;;;;421.30;401.97;;;6.90;99.90;;;;;;4414224;32;20157;-60
2022/02/15 07:51:16;;;;;;;435.83;415.90;;;7.10;99.90;;;;;;4408598;32;20177;-61
2022/02/15 07:53:49;;;;;;;408.90;390.23;;;7.10;99.90;;;;;;4409695;32;20195;-60
2022/02/15 07:56:16;;;;;;;439.00;418.60;;;7.30;99.90;;;;;;4411172;32;20152;-61
2022/02/15 07:58:47;;;;;;;466.40;445.07;;;7.40;99.90;;;;;;4412158;32;21745;-60
2022/02/15 08:01:24;;;;;;;460.50;439.17;;;7.40;99.90;;;;;;4405134;32;20250;-60
2022/02/15 08:04:00;;;;;;;447.83;426.50;;;7.40;99.90;;;;;;4404950;32;20211;-62
2022/02/15 08:06:27;;;;;;;454.40;430.17;;;7.30;99.90;;;;;;4405229;32;20151;-58
2022/02/15 08:08:57;;;;;;;447.60;426.83;;;7.40;99.90;;;;;;4414271;32;20162;-61
2022/02/15 08:11:25;;;;;;;456.13;435.33;;;7.40;99.90;;;;;;4407594;32;20225;-58
2022/02/15 08:13:59;;;;;;;483.13;460.60;;;7.40;99.90;;;;;;4408592;32;20261;-59
2022/02/15 08:16:30;;;;;;;449.20;428.73;;;7.60;99.90;;;;;;4412482;32;20574;-60
2022/02/15 08:19:08;;;;;;;455.30;434.03;;;7.60;99.90;;;;;;4405317;32;20151;-61
2022/02/15 08:21:37;;;;;;;433.03;413.53;;;7.70;99.90;;;;;;4404945;32;20151;-60
2022/02/15 08:24:05;;;;;;;433.13;412.80;;;7.80;99.90;;;;;;4410584;32;20191;-60
2022/02/15 08:26:32;;;;;;;455.60;434.87;;;7.80;99.90;;;;;;4404687;32;20144;-60
2022/02/15 08:29:01;;;;;;;454.47;433.60;;;7.80;99.90;;;;;;4418428;32;20151;-61
2022/02/15 08:31:28;;;;;;;454.47;433.87;;;7.90;99.90;;;;;;4418396;32;20147;-60
2022/02/15 08:33:57;;;;;;;444.73;423.87;;;8.00;99.90;;;;;;4405192;32;20174;-61
2022/02/15 08:36:42;;;;;;;448.47;427.40;;;8.00;99.90;;;;;;4411500;32;20194;-61
2022/02/15 08:39:19;;;;;;;439.73;419.10;;;8.00;99.90;;;;;;4418585;32;20206;-60
2022/02/15 08:41:50;;;;;;;447.80;426.97;;;8.00;99.90;;;;;;4410954;32;20143;-59
2022/02/15 08:44:27;;;;;;;431.17;411.27;;;7.90;99.90;;;;;;4411150;32;20159;-60
2022/02/15 08:47:05;;;;;;;436.33;416.70;;;8.00;99.90;;;;;;4413239;32;20233;-62
2022/02/15 08:49:38;;;;;;;437.70;417.40;;;8.00;99.90;;;;;;4416416;32;20204;-59
2022/02/15 08:52:08;;;;;;;428.27;408.70;;;8.00;99.90;;;;;;4416124;32;20584;-59
2022/02/15 08:54:38;;;;;;;445.67;425.13;;;8.00;99.90;;;;;;4416981;32;20200;-60
2022/02/15 08:57:09;;;;;;;449.97;429.77;;;8.00;99.90;;;;;;4411837;32;20155;-62
2022/02/15 08:59:37;;;;;;;462.07;441.07;;;8.10;99.90;;;;;;4415303;32;20152;-62
2022/02/15 09:02:06;;;;;;;433.87;413.87;;;8.00;99.90;;;;;;4412398;32;20153;-60
2022/02/15 09:04:37;;;;;;;440.93;420.70;;;8.10;99.90;;;;;;4411269;32;20222;-61
2022/02/15 09:07:04;;;;;;;443.97;423.60;;;8.40;99.90;;;;;;4413714;32;20623;-60
2022/02/15 09:09:32;;;;;;;440.30;420.13;;;8.50;99.90;;;;;;4413064;32;20580;-60
2022/02/15 09:12:03;;;;;;;436.47;416.23;;;8.40;99.90;;;;;;4412121;32;20148;-61
2022/02/15 09:14:38;;;;;;;430.97;410.67;;;8.10;99.90;;;;;;4405658;32;20175;-61
2022/02/15 09:17:16;;;;;;;444.93;424.50;;;7.90;99.90;;;;;;4405176;32;20199;-62
2022/02/15 09:19:43;;;;;;;460.00;439.07;;;7.60;99.90;;;;;;4405568;32;20182;-62
2022/02/15 09:22:10;;;;;;;460.00;439.10;;;7.70;99.90;;;;;;4406733;32;20141;-61
2022/02/15 09:24:37;;;;;;;464.10;442.53;;;7.90;99.90;;;;;;4404988;32;20179;-61
2022/02/15 09:27:13;;;;;;;445.80;424.80;;;8.30;99.90;;;;;;4414518;32;20587;-61
2022/02/15 09:29:44;;;;;;;448.10;427.10;;;9.00;99.90;;;;;;4405239;32;20139;-62
2022/02/15 09:32:17;;;;;;;419.83;400.70;;;9.20;99.90;;;;;;4406041;32;20474;-63
2022/02/15 09:34:46;;;;;;;413.93;394.73;;;9.40;99.90;;;;;;4406766;32;20140;-62
2022/02/15 09:37:13;;;;;;;429.77;410.07;;;9.20;99.90;;;;;;4406629;32;20232;-61
2022/02/15 09:39:42;;;;;;;415.37;396.73;;;9.10;99.90;;;;;;4406298;32;20148;-61
2022/02/15 09:42:25;;;;;;;415.47;396.90;;;9.50;99.90;;;;;;4406811;32;20168;-61
2022/02/15 09:44:53;;;;;;;408.83;390.63;;;9.60;99.90;;;;;;4416022;32;20163;-62
2022/02/15 09:47:33;;;;;;;415.37;397.00;;;9.50;99.90;;;;;;4418818;32;20157;-60
2022/02/15 09:50:02;;;;;;;398.30;380.50;;;9.30;99.90;;;;;;4408644;32;20145;-62
2022/02/15 09:52:45;;;;;;;395.10;377.83;;;9.30;99.90;;;;;;4407577;32;20158;-60
2022/02/15 09:55:20;;;;;;;379.33;362.63;;;9.70;99.90;;;;;;4412597;32;20199;-62
2022/02/15 09:57:50;;;;;;;389.20;372.07;;;9.80;99.90;;;;;;4422451;32;20173;-60
2022/02/15 10:00:21;;;;;;;396.23;378.50;;;9.90;99.90;;;;;;4422702;32;20172;-62
2022/02/15 10:02:52;;;;;;;404.33;386.67;;;10.00;99.90;;;;;;4422689;32;20154;-61
2022/02/15 10:05:24;;;;;;;382.37;365.47;;;10.00;99.90;;;;;;4418600;32;20212;-61
2022/02/15 10:07:54;;;;;;;372.73;356.07;;;10.00;99.90;;;;;;4407615;32;20469;-63
2022/02/15 10:10:28;;;;;;;358.03;342.73;;;10.00;99.90;;;;;;4419557;32;20573;-61
2022/02/15 10:15:59;;;;;;;384.40;366.67;;;9.30;99.90;;;;;;4375504;32;20172;-61
2022/02/15 10:18:37;;;;;;;363.27;347.57;;;9.50;99.90;;;;;;4374217;32;20160;-63
2022/02/15 10:21:10;;;;;;;362.13;346.97;;;9.80;99.90;;;;;;4360180;32;20208;-62
2022/02/15 10:23:42;;;;;;;374.63;358.43;;;9.80;99.90;;;;;;4360386;32;20286;-60
2022/02/15 10:26:09;;;;;;;368.90;352.93;;;9.70;99.90;;;;;;4364228;32;20223;-60
2022/02/15 10:28:49;;;;;;;366.13;350.63;;;9.50;99.90;;;;;;4362243;32;20167;-59
2022/02/15 10:31:28;;;;;;;347.63;332.77;;;9.40;99.90;;;;;;4360399;32;20163;-60
2022/02/15 10:34:16;;;;;;;366.83;350.87;;;9.30;99.90;;;;;;4359597;32;20145;-60
2022/02/15 10:37:03;;;;;;;358.23;342.90;;;9.30;99.90;;;;;;4366332;32;20167;-61
2022/02/15 10:39:42;;;;;;;381.63;365.03;;;9.10;99.90;;;;;;4361854;32;20163;-61
2022/02/15 10:42:10;;;;;;;374.00;357.43;;;9.10;99.90;;;;;;4379809;32;20556;-61
2022/02/15 10:45:00;;;;;;;371.93;355.53;;;9.10;99.90;;;;;;4366654;32;20613;-60
2022/02/15 10:47:29;;;;;;;349.37;334.47;;;9.60;99.90;;;;;;4359584;33;20907;-63
2022/02/15 10:49:59;;;;;;;338.43;323.83;;;9.80;99.90;;;;;;4359476;32;20160;-60
2022/02/15 10:52:30;;;;;;;344.90;329.80;;;9.70;99.90;;;;;;4370461;32;20187;-60
2022/02/15 10:55:11;;;;;;;338.83;324.33;;;9.70;99.90;;;;;;4407116;32;20197;-63
2022/02/15 10:57:46;;;;;;;361.20;344.30;;;9.60;99.90;;;;;;4407048;32;20142;-62
2022/02/15 11:00:23;;;;;;;365.93;350.13;;;9.50;99.90;;;;;;4406588;32;20212;-61
2022/02/15 11:02:55;;;;;;;325.00;310.50;;;9.40;99.90;;;;;;4407656;32;20182;-60
2022/02/15 11:05:23;;;;;;;343.80;328.87;;;9.30;99.90;;;;;;4407573;32;20153;-61
2022/02/15 11:07:52;;;;;;;353.20;338.10;;;9.20;99.90;;;;;;4407513;32;20141;-63
2022/02/15 11:10:30;;;;;;;359.23;343.63;;;9.00;99.90;;;;;;4407452;32;20238;-62
2022/02/15 11:13:05;;;;;;;351.20;335.80;;;9.00;99.90;;;;;;4407376;32;20145;-60
2022/02/15 11:15:56;;;;;;;344.90;330.40;;;9.10;99.90;;;;;;4406721;32;20151;-62
2022/02/15 11:18:48;;;;;;;329.50;315.87;;;9.20;99.90;;;;;;4406835;32;20159;-59
2022/02/15 11:21:42;;;;;;;335.93;321.20;;;9.30;99.90;;;;;;4413684;32;20152;-60
2022/02/15 11:24:29;;;;;;;324.50;310.60;;;9.40;99.90;;;;;;4421930;32;20139;-61
2022/02/15 11:27:16;;;;;;;338.90;324.40;;;9.50;99.90;;;;;;4421985;32;20155;-62
2022/02/15 11:29:51;;;;;;;315.17;301.67;;;9.60;99.90;;;;;;4421946;32;20204;-60
2022/02/15 11:32:27;;;;;;;334.43;320.40;;;9.70;99.90;;;;;;4421448;32;20569;-61
2022/02/15 11:35:18;;;;;;;299.00;286.37;;;9.70;99.90;;;;;;4421896;32;20174;-61
2022/02/15 11:40:36;;;;;;;319.63;306.53;;;9.50;99.90;;;;;;4418305;32;20204;-60
2022/02/15 11:43:10;;;;;;;332.20;318.07;;;9.30;99.90;;;;;;4407409;32;20182;-61
2022/02/15 11:46:03;;;;;;;311.00;297.97;;;9.10;99.90;;;;;;4406347;32;20164;-62
2022/02/15 11:48:52;;;;;;;298.30;285.93;;;9.10;99.90;;;;;;4345328;33;20489;-59
2022/02/15 11:51:27;;;;;;;324.83;310.93;;;9.00;99.90;;;;;;4343956;33;20223;-60
2022/02/15 11:54:00;;;;;;;315.80;302.63;;;9.10;99.90;;;;;;4344042;33;20212;-60
2022/02/15 11:56:37;;;;;;;310.30;297.40;;;9.10;99.90;;;;;;4344483;33;20237;-60
2022/02/15 11:59:18;;;;;;;323.93;310.40;;;9.20;99.90;;;;;;4344183;33;20221;-59
2022/02/15 12:02:06;;;;;;;328.00;314.37;;;9.30;99.90;;;;;;4344979;33;20177;-63
2022/02/15 12:05:00;;;;;;;318.97;305.57;;;9.50;99.90;;;;;;4344091;33;20527;-60
2022/02/15 12:07:29;;;;;;;295.20;283.23;;;9.90;99.90;;;;;;4344156;33;20168;-62
2022/02/15 12:10:00;;;;;;;327.43;313.77;;;10.00;99.90;;;;;;4344272;33;20156;-62
2022/02/15 12:12:33;;;;;;;327.50;313.93;;;10.00;99.90;;;;;;4337221;33;20575;-63
2022/02/15 12:15:09;;;;;;;306.60;294.13;;;10.10;99.90;;;;;;4329145;33;20175;-62
2022/02/15 12:17:43;;;;;;;293.73;281.37;;;10.10;99.90;;;;;;4330786;33;20575;-62
2022/02/15 12:20:21;;;;;;;318.83;305.00;;;10.10;99.90;;;;;;4328854;33;20166;-60
2022/02/15 12:22:56;;;;;;;323.40;309.67;;;10.00;99.90;;;;;;4329454;33;20450;-60
2022/02/15 12:25:25;;;;;;;310.87;298.13;;;10.10;99.90;;;;;;4345987;32;20156;-60
2022/02/15 12:28:09;;;;;;;320.73;307.33;;;10.20;99.90;;;;;;4376013;32;20144;-62
2022/02/15 12:30:50;;;;;;;319.87;306.57;;;10.10;99.90;;;;;;4376258;32;20224;-59
2022/02/15 12:33:18;;;;;;;319.80;306.30;;;10.10;99.90;;;;;;4376698;32;20170;-62
2022/02/15 12:35:57;;;;;;;334.47;319.67;;;10.20;99.90;;;;;;4375595;32;20149;-60
2022/02/15 12:38:37;;;;;;;323.53;309.93;;;10.30;99.90;;;;;;4374787;32;20144;-64
2022/02/15 12:41:23;;;;;;;315.93;302.47;;;10.30;99.90;;;;;;4375466;32;20182;-61
2022/02/15 12:43:57;;;;;;;333.50;319.23;;;10.30;99.90;;;;;;4376905;32;20218;-63
2022/02/15 12:46:24;;;;;;;328.17;314.60;;;10.30;99.90;;;;;;4375393;32;20191;-61
2022/02/15 12:48:51;;;;;;;334.37;320.07;;;10.30;99.90;;;;;;4375416;32;20177;-62